Time;durP1;ratioP1;P1;durP2;ratioP2;P2;SDS_P1;SDS_P2;PMS_P1;PMS_P2;Temp;Humidity;BMP_temperature;BMP_pressure;BME280_temperature;BME280_humidity;BME280_pressure;Samples;Min_cycle;Max_cycle;Signal;HPM_P1;HPM_P2
2021/04/12 00:01:39;;;;;;;2.30;2.10;;;9.20;99.90;;;9.37;100.00;94761.00;2215789;56;26177;-62
2021/04/12 00:04:36;;;;;;;2.47;2.27;;;9.20;99.90;;;9.39;100.00;94754.00;2434086;56;26100;-62
2021/04/12 00:07:32;;;;;;;3.73;2.90;;;9.20;99.90;;;9.38;100.00;94753.00;2433970;56;26133;-62
2021/04/12 00:10:28;;;;;;;5.53;2.33;;;9.20;99.90;;;9.62;100.00;94739.00;2214513;56;26570;-62
2021/04/12 00:13:21;;;;;;;3.73;1.80;;;9.20;99.90;;;9.56;100.00;94750.00;2215568;56;26153;-62
2021/04/12 00:16:13;;;;;;;3.17;2.20;;;9.30;99.90;;;9.65;100.00;94748.00;2434602;56;26603;-61
2021/04/12 00:19:07;;;;;;;2.47;1.97;;;9.30;99.90;;;9.56;100.00;94755.00;2216027;56;26116;-62
2021/04/12 00:22:01;;;;;;;4.07;2.03;;;9.10;99.90;;;9.40;100.00;94739.00;2435221;56;26124;-62
2021/04/12 00:24:56;;;;;;;2.47;1.90;;;9.00;99.90;;;9.24;100.00;94743.00;2215939;56;26197;-63
2021/04/12 00:27:49;;;;;;;4.17;2.30;;;8.90;99.90;;;9.20;100.00;94747.00;2216605;56;26732;-62
2021/04/12 00:30:41;;;;;;;2.63;1.90;;;8.90;99.90;;;9.15;100.00;94747.00;2435618;56;26100;-62
2021/04/12 00:33:35;;;;;;;2.70;2.20;;;8.80;99.90;;;9.15;100.00;94749.00;2215625;56;26185;-61
2021/04/12 00:36:28;;;;;;;3.43;2.10;;;9.20;99.90;;;9.60;100.00;94742.00;2434801;56;26069;-62
2021/04/12 00:39:23;;;;;;;2.57;1.90;;;9.20;99.90;;;9.75;100.00;94746.00;2434215;56;26177;-62
2021/04/12 00:42:43;;;;;;;2.80;2.20;;;9.10;99.90;;;9.46;100.00;94747.00;2216085;56;26148;-62
2021/04/12 00:46:11;;;;;;;3.80;2.27;;;9.10;99.90;;;9.38;100.00;94745.00;2434881;56;26116;-62
2021/04/12 00:49:59;;;;;;;3.53;2.87;;;9.10;99.90;;;9.39;100.00;94741.00;2215771;56;26136;-62
2021/04/12 00:53:19;;;;;;;3.00;2.63;;;9.20;99.90;;;9.43;100.00;94732.00;2365906;58;26192;-61
2021/04/12 00:56:12;;;;;;;2.90;2.20;;;9.20;99.90;;;9.43;100.00;94737.00;2160976;59;26591;-62
2021/04/12 00:59:08;;;;;;;3.47;2.43;;;9.10;99.90;;;9.40;100.00;94740.00;2435019;56;26149;-62
2021/04/12 01:02:06;;;;;;;2.63;2.20;;;9.10;99.90;;;9.43;100.00;94744.00;2215756;56;26518;-62
2021/04/12 01:05:12;;;;;;;2.67;2.20;;;9.10;99.90;;;9.58;100.00;94745.00;2215499;56;26160;-61
2021/04/12 01:08:49;;;;;;;3.23;2.47;;;9.20;99.90;;;9.65;100.00;94740.00;2215868;56;26548;-62
2021/04/12 01:12:00;;;;;;;3.33;2.20;;;9.30;99.90;;;9.80;100.00;94751.00;2434587;56;26144;-61
2021/04/12 01:15:48;;;;;;;2.87;2.27;;;9.30;99.90;;;9.61;100.00;94761.00;2215736;56;26457;-62
2021/04/12 01:19:43;;;;;;;3.43;2.47;;;9.10;99.90;;;9.63;100.00;94760.00;2214850;56;26205;-62
2021/04/12 01:23:53;;;;;;;4.87;2.10;;;9.00;99.90;;;9.53;100.00;94759.00;2214833;56;26221;-62
2021/04/12 01:27:12;;;;;;;2.77;2.00;;;9.10;99.90;;;9.47;100.00;94769.00;2434685;56;26626;-61
2021/04/12 01:30:51;;;;;;;3.03;2.10;;;9.10;99.90;;;9.59;100.00;94770.00;2434302;56;26646;-61
2021/04/12 01:34:58;;;;;;;2.40;2.20;;;9.10;99.90;;;9.44;100.00;94760.00;2434242;56;26149;-61
2021/04/12 01:37:53;;;;;;;2.43;2.23;;;9.00;99.90;;;9.33;100.00;94765.00;2215804;56;26245;-62
2021/04/12 01:41:13;;;;;;;2.37;2.17;;;9.00;99.90;;;9.31;100.00;94764.00;2215913;56;26192;-62
2021/04/12 01:44:22;;;;;;;2.17;1.97;;;9.10;99.90;;;9.48;100.00;94766.00;2215969;56;26561;-62
2021/04/12 01:47:50;;;;;;;2.33;2.13;;;9.10;99.90;;;9.40;100.00;94763.00;2434487;56;26100;-61
2021/04/12 01:51:14;;;;;;;3.80;2.10;;;9.10;99.90;;;9.37;100.00;94758.00;2216067;56;26936;-62
2021/04/12 01:54:43;;;;;;;4.33;2.37;;;9.10;99.90;;;9.35;100.00;94758.00;2434748;56;26112;-61
2021/04/12 01:58:15;;;;;;;2.80;2.50;;;9.00;99.90;;;9.29;100.00;94753.00;2216447;56;26100;-61
2021/04/12 02:01:17;;;;;;;3.47;2.50;;;9.00;99.90;;;9.31;100.00;94749.00;2434695;56;26654;-60
2021/04/12 02:04:37;;;;;;;2.80;2.50;;;9.00;99.90;;;9.29;100.00;94738.00;2434584;56;26706;-60
2021/04/12 02:07:44;;;;;;;2.40;2.20;;;8.90;99.90;;;9.24;100.00;94745.00;2216148;56;26112;-60
2021/04/12 02:10:46;;;;;;;2.70;2.30;;;8.90;99.90;;;9.20;100.00;94754.00;2215624;56;26160;-60
2021/04/12 02:14:11;;;;;;;2.70;2.40;;;8.90;99.90;;;9.22;100.00;94754.00;2434673;56;26172;-60
2021/04/12 02:17:10;;;;;;;2.30;2.10;;;8.90;99.90;;;9.23;100.00;94757.00;2215942;56;26085;-61
2021/04/12 02:20:16;;;;;;;2.53;2.33;;;8.90;99.90;;;9.26;100.00;94762.00;2215711;56;26591;-60
2021/04/12 02:23:20;;;;;;;2.23;2.00;;;9.00;99.90;;;9.28;100.00;94755.00;2216283;56;26082;-61
2021/04/12 02:26:44;;;;;;;2.80;2.23;;;9.10;99.90;;;9.35;100.00;94760.00;2215916;56;26096;-61
2021/04/12 02:29:42;;;;;;;2.50;2.30;;;9.00;99.90;;;9.33;100.00;94767.00;2214851;56;26295;-61
2021/04/12 02:33:03;;;;;;;2.30;2.10;;;8.90;99.90;;;9.25;100.00;94768.00;2215947;56;26586;-60
2021/04/12 02:36:07;;;;;;;2.33;2.13;;;8.90;99.90;;;9.24;100.00;94774.00;2434907;56;26115;-61
2021/04/12 02:39:04;;;;;;;3.20;2.30;;;8.90;99.90;;;9.23;100.00;94778.00;2434937;56;26232;-61
2021/04/12 02:42:11;;;;;;;2.87;2.40;;;8.90;99.90;;;9.27;100.00;94778.00;2216148;56;26551;-61
2021/04/12 02:45:14;;;;;;;2.70;2.50;;;8.90;99.90;;;9.17;100.00;94781.00;2216007;56;26185;-60
2021/04/12 02:48:32;;;;;;;2.90;2.70;;;8.80;99.90;;;9.12;100.00;94784.00;2215963;56;26161;-60
2021/04/12 02:51:45;;;;;;;2.73;2.53;;;8.70;99.90;;;8.99;100.00;94781.00;2215923;56;26570;-61
2021/04/12 02:54:59;;;;;;;2.97;2.77;;;8.70;99.90;;;8.98;100.00;94782.00;2434584;56;26199;-60
2021/04/12 02:58:31;;;;;;;4.00;2.70;;;8.60;99.90;;;8.93;100.00;94787.00;2435022;56;26096;-60
2021/04/12 03:01:49;;;;;;;2.93;2.63;;;8.60;99.90;;;8.96;100.00;94797.00;2434860;56;26575;-60
2021/04/12 03:04:53;;;;;;;3.17;2.47;;;8.70;99.90;;;9.06;100.00;94792.00;2216046;56;26104;-60
2021/04/12 03:08:43;;;;;;;3.33;2.33;;;8.70;99.90;;;9.00;100.00;94795.00;2435368;56;26109;-61
2021/04/12 03:12:39;;;;;;;3.17;2.37;;;8.70;99.90;;;9.01;100.00;94793.00;2213578;56;26092;-60
2021/04/12 03:16:15;;;;;;;2.50;2.20;;;8.80;99.90;;;9.03;100.00;94798.00;2215834;56;26129;-60
2021/04/12 03:20:07;;;;;;;2.37;2.13;;;8.70;99.90;;;9.06;100.00;94794.00;2215657;56;26132;-60
2021/04/12 03:24:03;;;;;;;2.30;2.10;;;8.80;99.90;;;9.09;100.00;94797.00;2434767;56;26193;-61
2021/04/12 03:27:19;;;;;;;2.37;2.17;;;8.70;99.90;;;9.03;100.00;94798.00;2216216;56;26113;-60
2021/04/12 03:30:24;;;;;;;2.53;2.17;;;8.70;99.90;;;9.04;100.00;94798.00;2215733;56;26156;-60
2021/04/12 03:33:24;;;;;;;2.60;2.40;;;8.60;99.90;;;8.99;100.00;94796.00;2215561;56;26132;-61
2021/04/12 03:36:30;;;;;;;2.87;2.60;;;8.70;99.90;;;8.96;100.00;94792.00;2216079;56;26126;-60
2021/04/12 03:39:22;;;;;;;2.50;2.30;;;8.60;99.90;;;8.93;100.00;94795.00;2215733;56;26100;-60
2021/04/12 03:42:29;;;;;;;2.30;2.10;;;8.50;99.90;;;8.85;100.00;94790.00;2434534;56;26602;-60
2021/04/12 03:45:52;;;;;;;2.73;2.30;;;8.40;99.90;;;8.77;100.00;94790.00;2434467;56;26089;-61
2021/04/12 03:49:18;;;;;;;3.63;3.10;;;8.40;99.90;;;8.77;100.00;94792.00;2215569;56;26088;-60
2021/04/12 03:53:06;;;;;;;4.90;4.40;;;8.50;99.90;;;8.79;100.00;94800.00;1915135;56;19616791;-60
2021/04/12 03:56:31;;;;;;;4.70;4.30;;;8.40;99.90;;;8.74;100.00;94817.00;2434569;56;26674;-61
2021/04/12 03:59:24;;;;;;;3.33;3.03;;;8.40;99.90;;;8.68;100.00;94814.00;2216033;56;26547;-61
2021/04/12 04:02:52;;;;;;;3.30;3.00;;;8.40;99.90;;;8.71;100.00;94819.00;2434154;56;26670;-61
2021/04/12 04:06:08;;;;;;;5.37;4.00;;;8.30;99.90;;;8.58;100.00;94831.00;2204139;56;26184;-60
2021/04/12 04:09:14;;;;;;;3.70;3.40;;;8.20;99.90;;;8.50;100.00;94838.00;2434681;56;26547;-60
2021/04/12 04:12:18;;;;;;;4.43;4.03;;;8.10;99.90;;;8.45;100.00;94846.00;2434594;56;26105;-60
2021/04/12 04:15:44;;;;;;;4.97;4.47;;;8.10;99.90;;;8.44;100.00;94847.00;2434684;56;26532;-60
2021/04/12 04:18:37;;;;;;;5.10;4.60;;;8.10;99.90;;;8.48;100.00;94865.00;2215530;56;26545;-61
2021/04/12 04:22:11;;;;;;;4.17;3.77;;;8.00;99.90;;;8.37;100.00;94871.00;2434629;56;26131;-60
2021/04/12 04:26:21;;;;;;;4.17;3.77;;;8.10;99.90;;;8.37;100.00;94888.00;2434522;56;26152;-60
2021/04/12 04:30:10;;;;;;;4.77;3.77;;;8.00;99.90;;;8.31;100.00;94888.00;2181703;58;26719;-60
2021/04/12 04:33:16;;;;;;;6.73;6.03;;;7.90;99.90;;;8.26;100.00;94893.00;2413251;56;26113;-61
2021/04/12 04:36:25;;;;;;;7.20;5.80;;;7.80;99.90;;;8.09;100.00;94906.00;2434839;56;26084;-60
2021/04/12 04:40:09;;;;;;;7.70;6.17;;;7.30;99.90;;;7.58;100.00;94911.00;2434514;56;26158;-60
2021/04/12 04:43:20;;;;;;;8.07;6.20;;;6.90;99.90;;;7.17;100.00;94920.00;2434943;56;26080;-61
2021/04/12 04:46:37;;;;;;;7.53;6.10;;;6.90;99.90;;;7.15;100.00;94940.00;2214844;56;26181;-60
2021/04/12 04:49:52;;;;;;;7.53;5.70;;;6.70;99.90;;;6.98;100.00;94941.00;2215585;56;26128;-60
2021/04/12 04:53:05;;;;;;;7.23;5.40;;;6.50;99.90;;;6.82;100.00;94952.00;2434751;56;26264;-61
2021/04/12 04:56:15;;;;;;;7.33;5.33;;;6.50;99.90;;;6.74;100.00;94968.00;2433555;56;26232;-60
2021/04/12 04:59:26;;;;;;;6.63;4.30;;;6.40;99.90;;;6.74;100.00;94976.00;2434455;56;26104;-61
2021/04/12 05:02:44;;;;;;;4.13;3.60;;;6.30;99.90;;;6.55;100.00;94989.00;2215878;56;26113;-61
2021/04/12 05:06:17;;;;;;;4.57;3.53;;;6.00;99.90;;;6.30;100.00;95008.00;2215981;56;26642;-61
2021/04/12 05:09:29;;;;;;;4.10;3.40;;;5.90;99.90;;;6.21;100.00;95022.00;2216122;56;26093;-61
2021/04/12 05:12:47;;;;;;;4.70;3.50;;;5.90;99.90;;;6.14;100.00;95034.00;2215923;56;26161;-60
2021/04/12 05:16:33;;;;;;;4.77;3.80;;;5.70;99.90;;;6.06;100.00;95037.00;2216352;56;26112;-60
2021/04/12 05:19:55;;;;;;;4.73;4.10;;;5.80;99.90;;;6.05;100.00;95057.00;2433635;56;26763;-61
2021/04/12 05:23:07;;;;;;;4.00;3.60;;;5.60;99.90;;;5.91;100.00;95069.00;2216214;56;26145;-60
2021/04/12 05:26:55;;;;;;;3.93;3.20;;;5.60;99.90;;;5.93;100.00;95076.00;2215861;56;26105;-60
2021/04/12 05:30:18;;;;;;;4.30;3.10;;;5.40;99.90;;;5.70;100.00;95085.00;2198911;56;26217;-60
2021/04/12 05:33:18;;;;;;;2.83;2.43;;;5.20;99.90;;;5.43;100.00;95088.00;2434612;56;26546;-60
2021/04/12 05:36:42;;;;;;;2.77;2.50;;;5.00;99.90;;;5.31;100.00;95103.00;2215806;56;26212;-61
2021/04/12 05:40:10;;;;;;;3.53;2.00;;;4.80;99.90;;;5.13;100.00;95111.00;2434679;56;26507;-60
2021/04/12 05:43:14;;;;;;;3.20;2.27;;;4.70;99.90;;;4.98;100.00;95124.00;2434960;56;26181;-60
2021/04/12 05:46:28;;;;;;;2.37;1.90;;;4.50;99.90;;;4.80;100.00;95124.00;2434476;56;26088;-60
2021/04/12 05:50:12;;;;;;;2.53;2.20;;;4.50;99.90;;;4.77;100.00;95127.00;2434372;56;26620;-60
2021/04/12 05:53:48;;;;;;;3.23;2.10;;;4.50;99.90;;;4.77;100.00;95145.00;2435150;56;26175;-59
2021/04/12 05:57:31;;;;;;;2.20;1.63;;;4.30;99.90;;;4.59;100.00;95157.00;2435038;56;26105;-60
2021/04/12 06:00:35;;;;;;;2.53;1.60;;;4.00;99.90;;;4.33;100.00;95169.00;2434704;56;26180;-60
2021/04/12 06:03:46;;;;;;;2.20;2.00;;;3.80;99.90;;;4.10;100.00;95175.00;2433328;56;26176;-61
2021/04/12 06:07:43;;;;;;;2.43;2.10;;;3.80;99.90;;;4.09;100.00;95186.00;2216369;56;26169;-60
2021/04/12 06:11:27;;;;;;;2.50;2.30;;;3.70;99.90;;;4.07;100.00;95192.00;2215829;56;26170;-60
2021/04/12 06:15:15;;;;;;;2.50;2.30;;;3.70;99.90;;;4.05;100.00;95203.00;2412640;56;25604;-60
2021/04/12 06:18:44;;;;;;;3.00;1.90;;;3.60;99.90;;;3.83;100.00;95213.00;2431408;56;26615;-60
2021/04/12 06:22:05;;;;;;;1.77;1.67;;;3.30;99.90;;;3.58;100.00;95226.00;2216169;56;26106;-59
2021/04/12 06:25:50;;;;;;;1.23;1.13;;;3.00;99.90;;;3.31;100.00;95247.00;2434955;56;26150;-59
2021/04/12 06:30:01;;;;;;;1.10;1.00;;;2.70;99.90;;;2.96;100.00;95260.00;2232529;56;26170;-59
2021/04/12 06:33:46;;;;;;;1.63;1.47;;;2.50;99.90;;;2.77;100.00;95273.00;2404416;57;26367;-59
2021/04/12 06:36:58;;;;;;;1.50;1.40;;;2.30;99.90;;;2.60;100.00;95294.00;2459703;56;26118;-59
2021/04/12 06:40:17;;;;;;;1.30;1.20;;;2.10;99.90;;;2.39;100.00;95295.00;2236583;56;26095;-60
2021/04/12 06:44:22;;;;;;;2.13;1.50;;;1.90;99.90;;;2.17;100.00;95304.00;2236683;56;26113;-60
2021/04/12 06:47:58;;;;;;;1.60;1.50;;;1.90;99.90;;;2.32;100.00;95300.00;2236276;56;26103;-60
2021/04/12 06:51:43;;;;;;;2.10;1.70;;;1.90;99.90;;;2.29;100.00;95331.00;2459554;56;26227;-60
2021/04/12 06:54:56;;;;;;;3.60;2.20;;;2.00;99.90;;;2.28;100.00;95342.00;2236054;56;26101;-60
2021/04/12 06:58:59;;;;;;;2.07;1.87;;;1.90;99.90;;;2.20;100.00;95353.00;2236533;56;26627;-60
2021/04/12 07:02:24;;;;;;;1.93;1.40;;;1.90;99.90;;;2.41;100.00;95377.00;2321510;59;26143;-59
2021/04/12 07:05:50;;;;;;;1.97;1.87;;;2.00;99.90;;;2.25;100.00;95390.00;2133564;60;26235;-59
2021/04/12 07:09:23;;;;;;;2.20;1.50;;;1.90;99.90;;;2.36;100.00;95399.00;2459673;56;26596;-59
2021/04/12 07:12:47;;;;;;;1.67;1.57;;;1.70;99.90;;;2.07;100.00;95412.00;2232180;56;26132;-60
2021/04/12 07:16:48;;;;;;;3.27;1.80;;;1.50;99.90;;;1.88;100.00;95420.00;2236696;56;25609;-60
2021/04/12 07:20:10;;;;;;;2.67;2.47;;;1.50;99.90;;;1.93;100.00;95426.00;2459067;56;26191;-60
2021/04/12 07:24:08;;;;;;;1.90;1.57;;;1.60;99.90;;;2.02;100.00;95445.00;2236438;56;26151;-60
2021/04/12 07:27:51;;;;;;;2.00;1.67;;;1.60;99.90;;;2.06;100.00;95441.00;2236780;56;25570;-60
2021/04/12 07:31:55;;;;;;;1.80;1.60;;;1.60;99.90;;;2.11;100.00;95447.00;2450413;56;26204;-60
2021/04/12 07:35:10;;;;;;;2.77;2.00;;;1.90;99.90;;;2.44;100.00;95454.00;2236336;56;26960;-60
2021/04/12 07:39:10;;;;;;;3.80;2.70;;;2.10;99.90;;;2.59;100.00;95464.00;2236473;56;25240;-60
2021/04/12 07:42:50;;;;;;;3.13;1.53;;;1.90;99.90;;;2.33;100.00;95472.00;2459580;56;26848;-60
2021/04/12 07:47:10;;;;;;;2.03;1.57;;;1.70;99.90;;;2.14;100.00;95478.00;2459717;56;26088;-60
2021/04/12 07:51:20;;;;;;;1.60;1.50;;;2.00;99.90;;;2.37;100.00;95490.00;2236320;56;26541;-60
2021/04/12 07:54:47;;;;;;;3.10;2.27;;;1.80;99.90;;;2.27;100.00;95489.00;2324354;56;26392;-60
2021/04/12 07:58:43;;;;;;;3.30;2.50;;;2.00;99.90;;;2.50;100.00;95498.00;2236618;56;26103;-60
2021/04/12 08:02:04;;;;;;;3.70;2.87;;;1.90;99.90;;;2.32;100.00;95507.00;2395594;56;26155;-60
2021/04/12 08:05:56;;;;;;;4.23;2.40;;;2.00;99.90;;;2.43;100.00;95502.00;2236061;56;26143;-60
2021/04/12 08:09:38;;;;;;;3.80;2.67;;;2.00;99.90;;;2.64;100.00;95519.00;2459558;56;26240;-60
2021/04/12 08:13:22;;;;;;;2.90;2.27;;;2.00;99.90;;;2.67;100.00;95523.00;2459332;56;26195;-60
2021/04/12 08:17:07;;;;;;;6.10;4.00;;;2.40;99.90;;;2.92;100.00;95532.00;2435102;56;26644;-62
2021/04/12 08:20:35;;;;;;;6.20;3.67;;;2.00;99.90;;;2.46;100.00;95536.00;2413197;56;26647;-62
2021/04/12 08:24:33;;;;;;;6.27;4.17;;;2.20;99.90;;;2.72;100.00;95526.00;2458841;56;26578;-60
2021/04/12 08:28:27;;;;;;;4.80;3.50;;;2.20;99.90;;;2.76;100.00;95543.00;2139370;57;26520;-59
2021/04/12 08:32:31;;;;;;;3.20;2.50;;;2.30;99.90;;;3.09;100.00;95548.00;2240376;57;26123;-60
2021/04/12 08:36:20;;;;;;;2.03;1.57;;;2.20;99.90;;;2.90;100.00;95555.00;2239892;57;26111;-60
2021/04/12 08:39:50;;;;;;;3.50;3.20;;;2.40;99.90;;;2.97;100.00;95560.00;2240222;57;26170;-59
2021/04/12 08:43:42;;;;;;;5.43;3.63;;;2.30;99.90;;;3.00;100.00;95574.00;2464311;56;25550;-60
2021/04/12 08:47:23;;;;;;;2.50;2.30;;;2.40;99.90;;;3.18;100.00;95570.00;2161691;59;26204;-60
2021/04/12 08:50:29;;;;;;;3.97;2.30;;;2.50;99.90;;;3.09;100.00;95579.00;2175752;57;26147;-60
2021/04/12 08:54:19;;;;;;;2.17;1.97;;;2.30;99.90;;;2.74;100.00;95592.00;2240159;57;26175;-60
2021/04/12 08:57:50;;;;;;;3.00;2.07;;;2.20;99.90;;;2.70;100.00;95601.00;2240567;57;26677;-60
2021/04/12 09:01:32;;;;;;;2.60;2.40;;;2.20;99.90;;;2.70;100.00;95599.00;2441884;56;26161;-60
2021/04/12 09:05:25;;;;;;;3.20;2.50;;;2.30;99.90;;;2.85;100.00;95607.00;2462707;56;26267;-61
2021/04/12 09:08:41;;;;;;;3.43;2.93;;;2.40;99.90;;;3.03;100.00;95611.00;2238690;57;26722;-59
2021/04/12 09:12:14;;;;;;;3.20;2.70;;;2.30;99.90;;;2.82;100.00;95608.00;2240041;57;26162;-59
2021/04/12 09:16:01;;;;;;;4.20;3.27;;;2.50;99.90;;;3.14;100.00;95619.00;2240798;57;26092;-60
2021/04/12 09:19:31;;;;;;;3.20;2.90;;;2.60;99.90;;;3.23;100.00;95622.00;2240676;57;26110;-61
2021/04/12 09:23:26;;;;;;;4.97;4.17;;;2.50;99.90;;;3.20;100.00;95623.00;2464632;56;26280;-61
2021/04/12 09:27:00;;;;;;;3.20;2.90;;;2.70;99.90;;;3.43;100.00;95630.00;2240433;57;26154;-62
2021/04/12 09:30:17;;;;;;;4.43;3.20;;;2.70;99.90;;;3.39;100.00;95626.00;2464442;56;26112;-60
2021/04/12 09:34:06;;;;;;;3.43;2.80;;;2.80;99.90;;;3.55;100.00;95629.00;2240473;57;26151;-60
2021/04/12 09:37:41;;;;;;;3.70;2.67;;;2.50;99.90;;;3.30;100.00;95629.00;2240586;57;26598;-61
2021/04/12 09:41:31;;;;;;;5.20;3.43;;;2.80;99.90;;;3.52;100.00;95629.00;2240596;57;25193;-60
2021/04/12 09:45:15;;;;;;;3.20;2.90;;;2.90;99.90;;;3.82;100.00;95639.00;2237344;57;26141;-61
2021/04/12 09:48:38;;;;;;;2.80;2.60;;;3.00;99.90;;;3.63;100.00;95637.00;2240347;57;26276;-60
2021/04/12 09:52:15;;;;;;;6.43;5.10;;;2.90;99.90;;;3.64;100.00;95628.00;2464397;56;26219;-60
2021/04/12 09:55:35;;;;;;;5.33;3.90;;;3.10;99.90;;;3.88;100.00;95647.00;2464169;56;26171;-61
2021/04/12 09:59:26;;;;;;;2.57;2.20;;;3.60;99.90;;;4.60;100.00;95632.00;2240760;57;26159;-60
2021/04/12 10:02:55;;;;;;;3.00;2.57;;;3.00;99.90;;;3.80;100.00;95636.00;2240384;57;26658;-61
2021/04/12 10:06:29;;;;;;;2.50;2.30;;;3.00;99.90;;;3.67;100.00;95642.00;2215890;57;26157;-61
2021/04/12 10:09:42;;;;;;;3.20;2.90;;;3.00;99.90;;;3.86;100.00;95646.00;2434516;56;26276;-61
2021/04/12 10:12:47;;;;;;;3.17;2.53;;;3.20;99.90;;;4.02;100.00;95654.00;2220999;57;26118;-61
2021/04/12 10:15:44;;;;;;;3.30;2.80;;;3.00;99.90;;;3.69;100.00;95667.00;2434505;57;26581;-60
2021/04/12 10:18:42;;;;;;;3.90;3.23;;;3.20;99.90;;;4.04;100.00;95667.00;2433749;57;26188;-60
2021/04/12 10:21:40;;;;;;;3.17;2.87;;;3.20;99.90;;;3.96;100.00;95659.00;2215466;58;26137;-60
2021/04/12 10:24:32;;;;;;;3.30;3.00;;;3.00;99.90;;;3.70;100.00;95661.00;2215355;58;26539;-60
2021/04/12 10:27:26;;;;;;;3.63;3.20;;;3.00;99.90;;;3.64;100.00;95664.00;2433645;56;26174;-60
2021/04/12 10:30:19;;;;;;;3.77;3.30;;;2.90;99.90;;;3.44;100.00;95660.00;2432874;56;25541;-61
2021/04/12 10:33:16;;;;;;;3.20;2.90;;;2.80;99.90;;;3.35;100.00;95666.00;2214653;57;26551;-60
2021/04/12 10:36:11;;;;;;;3.50;3.20;;;2.90;99.90;;;3.60;100.00;95678.00;2433060;56;26710;-61
2021/04/12 10:39:06;;;;;;;4.67;3.40;;;3.10;99.90;;;3.86;100.00;95672.00;2433324;56;26093;-60
2021/04/12 10:42:01;;;;;;;3.57;3.17;;;3.30;99.90;;;4.13;100.00;95676.00;2214638;57;26710;-61
2021/04/12 10:44:59;;;;;;;3.40;3.10;;;3.40;99.90;;;4.28;100.00;95678.00;2432730;56;26563;-60
2021/04/12 10:48:05;;;;;;;3.10;2.80;;;3.60;99.90;;;4.60;100.00;95681.00;2431678;56;26217;-61
2021/04/12 10:51:14;;;;;;;4.00;3.27;;;3.50;99.90;;;4.39;100.00;95673.00;2433816;56;26622;-61
2021/04/12 10:54:45;;;;;;;3.10;2.80;;;3.50;99.90;;;4.42;100.00;95677.00;2433468;56;26109;-61
2021/04/12 10:57:43;;;;;;;3.47;3.13;;;3.60;99.90;;;4.31;100.00;95681.00;2214884;57;25552;-61
2021/04/12 11:00:55;;;;;;;3.63;3.30;;;3.20;99.90;;;3.72;100.00;95683.00;2214629;57;25188;-60
2021/04/12 11:03:52;;;;;;;3.80;3.40;;;3.20;99.90;;;3.89;100.00;95687.00;2214378;57;26222;-60
2021/04/12 11:07:11;;;;;;;4.17;3.53;;;2.90;99.90;;;3.43;100.00;95694.00;2214173;57;26173;-61
2021/04/12 11:10:09;;;;;;;4.47;3.80;;;2.80;99.90;;;3.39;100.00;95694.00;2214528;57;26223;-60
2021/04/12 11:13:03;;;;;;;4.07;3.67;;;2.80;99.90;;;3.46;100.00;95697.00;2214572;57;26165;-61
2021/04/12 11:16:11;;;;;;;7.03;4.80;;;3.00;99.90;;;3.78;100.00;95700.00;2433434;56;26177;-61
2021/04/12 11:19:23;;;;;;;6.23;4.30;;;3.10;99.90;;;4.00;100.00;95697.00;2433111;56;26129;-61
2021/04/12 11:22:30;;;;;;;5.40;4.73;;;3.20;99.90;;;4.12;100.00;95696.00;2433133;56;26607;-63
2021/04/12 11:25:24;;;;;;;4.83;4.30;;;3.40;99.90;;;4.29;100.00;95705.00;2214602;57;26150;-61
2021/04/12 11:28:38;;;;;;;4.60;4.00;;;3.30;99.90;;;4.18;100.00;95703.00;2433483;56;26169;-61
2021/04/12 11:31:51;;;;;;;4.80;4.17;;;3.40;99.90;;;4.25;100.00;95704.00;2430277;56;26155;-60
2021/04/12 11:34:44;;;;;;;5.10;4.53;;;3.50;99.90;;;4.37;100.00;95718.00;2213760;57;26213;-61
2021/04/12 11:37:40;;;;;;;4.50;3.80;;;3.50;99.90;;;4.42;100.00;95711.00;2433501;56;26184;-61
2021/04/12 11:40:32;;;;;;;5.40;3.40;;;3.40;99.90;;;4.12;100.00;95719.00;2432971;56;26660;-60
2021/04/12 11:43:25;;;;;;;4.47;3.80;;;3.30;99.90;;;3.91;100.00;95726.00;2431198;56;26265;-60
2021/04/12 11:46:28;;;;;;;4.17;3.77;;;3.20;99.90;;;3.88;100.00;95727.00;2432584;56;26666;-61
2021/04/12 11:49:29;;;;;;;4.33;3.93;;;3.20;99.90;;;3.84;100.00;95728.00;2432592;56;26132;-60
2021/04/12 11:52:23;;;;;;;3.80;3.40;;;3.20;99.90;;;3.85;100.00;95730.00;2214359;57;26173;-61
2021/04/12 11:55:23;;;;;;;4.27;3.70;;;3.30;99.90;;;4.05;100.00;95733.00;2214413;57;26169;-60
2021/04/12 11:58:18;;;;;;;6.67;3.90;;;3.30;99.90;;;3.91;100.00;95735.00;2432839;56;26165;-60
2021/04/12 12:01:19;;;;;;;5.10;3.70;;;3.20;99.90;;;3.87;100.00;95741.00;2433076;56;26081;-60
2021/04/12 12:04:15;;;;;;;4.70;4.10;;;3.20;99.90;;;3.79;100.00;95738.00;2214156;57;26289;-60
2021/04/12 12:07:33;;;;;;;4.20;3.80;;;3.30;99.90;;;3.97;100.00;95747.00;2214444;57;26270;-60
2021/04/12 12:10:37;;;;;;;4.57;4.17;;;3.30;99.90;;;4.05;100.00;95749.00;2214262;57;26757;-60
2021/04/12 12:13:41;;;;;;;4.77;4.27;;;3.50;99.90;;;4.30;100.00;95754.00;2214056;57;26089;-61
2021/04/12 12:16:32;;;;;;;6.17;4.73;;;3.70;99.90;;;4.54;100.00;95752.00;2214540;57;26205;-61
2021/04/12 12:19:31;;;;;;;3.83;3.50;;;3.60;99.90;;;4.39;100.00;95753.00;2431408;56;26117;-61
2021/04/12 12:22:34;;;;;;;4.50;4.10;;;3.50;99.90;;;4.21;100.00;95754.00;2433444;56;26214;-60
2021/04/12 12:25:39;;;;;;;4.40;4.00;;;3.50;99.90;;;4.19;100.00;95756.00;2214825;57;26109;-60
2021/04/12 12:28:44;;;;;;;3.73;3.43;;;3.40;99.90;;;4.13;100.00;95758.00;2214685;57;26134;-60
2021/04/12 12:31:35;;;;;;;4.00;3.60;;;3.30;99.90;;;3.92;100.00;95759.00;2214905;57;26686;-60
2021/04/12 12:34:36;;;;;;;4.40;4.00;;;3.10;99.90;;;3.73;100.00;95770.00;2214530;57;26093;-60
2021/04/12 12:37:48;;;;;;;4.43;4.03;;;3.10;99.90;;;3.78;100.00;95768.00;2433106;56;26276;-60
2021/04/12 12:40:45;;;;;;;4.13;3.70;;;3.10;99.90;;;3.81;100.00;95765.00;2215860;56;26141;-60
2021/04/12 12:43:35;;;;;;;5.50;4.50;;;3.10;99.90;;;3.83;100.00;95765.00;2434704;56;26265;-60
2021/04/12 12:46:27;;;;;;;4.90;4.10;;;3.10;99.90;;;3.94;100.00;95760.00;2216185;56;26203;-60
2021/04/12 12:49:18;;;;;;;4.23;3.70;;;3.30;99.90;;;4.21;100.00;95760.00;2434515;56;26157;-61
2021/04/12 12:52:11;;;;;;;5.57;4.60;;;3.40;99.90;;;4.26;100.00;95766.00;2215972;56;26144;-60
2021/04/12 12:55:00;;;;;;;4.97;4.37;;;3.40;99.90;;;4.46;100.00;95775.00;2216241;56;26594;-61
2021/04/12 12:57:47;;;;;;;4.50;4.10;;;3.50;99.90;;;4.30;100.00;95769.00;2434902;56;26152;-60
2021/04/12 13:00:38;;;;;;;5.57;4.50;;;3.40;99.90;;;4.14;100.00;95775.00;2215976;56;26157;-61
2021/04/12 13:03:38;;;;;;;6.67;5.00;;;3.40;99.90;;;4.27;100.00;95781.00;2433614;56;26165;-60
2021/04/12 13:06:31;;;;;;;5.33;4.13;;;3.50;99.90;;;4.27;100.00;95777.00;2216007;56;26590;-61
2021/04/12 13:09:28;;;;;;;9.60;4.60;;;3.40;99.90;;;4.23;100.00;95776.00;2215690;56;26148;-61
2021/04/12 13:12:18;;;;;;;4.53;4.00;;;3.40;99.90;;;4.17;100.00;95781.00;2434257;56;26695;-61
2021/04/12 13:15:27;;;;;;;4.63;4.00;;;3.40;99.90;;;4.13;100.00;95785.00;2215950;56;26181;-61
2021/04/12 13:18:26;;;;;;;6.27;4.70;;;3.30;99.90;;;3.93;100.00;95793.00;2215015;56;26568;-61
2021/04/12 13:21:19;;;;;;;4.70;4.23;;;3.30;99.90;;;3.96;100.00;95792.00;2216195;56;26156;-61
2021/04/12 13:24:18;;;;;;;5.93;4.80;;;3.10;99.90;;;3.77;100.00;95795.00;2434472;56;26148;-61
2021/04/12 13:27:11;;;;;;;6.00;4.90;;;3.20;99.90;;;3.95;100.00;95788.00;2434448;56;26690;-61
2021/04/12 13:30:02;;;;;;;6.30;4.70;;;3.40;99.90;;;4.05;100.00;95790.00;2216244;56;26168;-61
2021/04/12 13:32:58;;;;;;;4.70;4.20;;;3.30;99.90;;;3.90;100.00;95795.00;2434098;56;26230;-60
2021/04/12 13:35:46;;;;;;;5.77;3.90;;;3.40;99.90;;;4.01;100.00;95789.00;2215898;56;26124;-61
2021/04/12 13:38:36;;;;;;;5.70;4.43;;;3.40;99.90;;;4.12;100.00;95797.00;2434524;56;26105;-61
2021/04/12 13:41:26;;;;;;;7.67;6.57;;;3.50;99.90;;;4.31;100.00;95802.00;2215754;56;26146;-61
2021/04/12 13:44:18;;;;;;;5.37;4.40;;;3.50;99.90;;;4.26;100.00;95799.00;2215570;57;26112;-61
2021/04/12 13:47:14;;;;;;;6.43;5.27;;;3.40;99.90;;;4.09;100.00;95792.00;2434084;56;26160;-60
2021/04/12 13:50:14;;;;;;;5.80;4.80;;;3.20;99.90;;;3.92;100.00;95796.00;2215695;57;26204;-61
2021/04/12 13:53:07;;;;;;;5.60;4.80;;;3.20;99.90;;;3.86;100.00;95799.00;2216171;57;26162;-64
2021/04/12 13:56:03;;;;;;;7.13;4.90;;;3.20;99.90;;;3.90;100.00;95795.00;2434398;56;26528;-62
2021/04/12 13:59:00;;;;;;;5.80;4.40;;;2.90;99.90;;;3.46;100.00;95806.00;2215632;57;26570;-60